Terminal Aerodrome Forecast
Issued by NWS Upton, NY

Home | Current Version | Previous Version | Text Only | Print | Product List | Glossary On
Versions: 1 2 3 4 5 6 7 8 9 10 11 12 13 14 15 16 17 18 19 20 21 22 23 24 25 26 27 28 29 30 31 32 33 34 35 36 37 38 39 40
000
FTUS41 KOKX 161100
TAFJFK
TAF
KJFK 161130Z 1612/1718 33022G32KT P6SM FEW040 SCT250
     FM161500 35015G25KT P6SM FEW040
     FM162100 36014KT P6SM SKC
     FM170200 04012KT P6SM SKC
     FM171000 06012KT P6SM FEW030
     FM171500 09015KT P6SM FEW030=

USA.gov is the U.S. government's official web portal to all federal, state and local government web resources and services.